createdAt,value
2023-03-06T00:01:33.892Z,2.8
2023-03-06T00:16:43.285Z,2.7
2023-03-06T00:31:52.781Z,3.5
2023-03-06T00:47:02.476Z,3.3
2023-03-06T01:02:12.160Z,2.8
2023-03-06T01:17:21.969Z,3.3
2023-03-06T01:32:31.346Z,3.5
2023-03-06T01:47:41.101Z,3.3
2023-03-06T02:02:50.042Z,4.4
2023-03-06T02:17:59.856Z,4.6
2023-03-06T02:33:09.497Z,4.3
2023-03-06T02:48:19.203Z,4.5
2023-03-06T03:03:28.890Z,3.9
2023-03-06T03:18:37.447Z,4.3
2023-03-06T03:33:47.181Z,3.7
2023-03-06T03:48:56.672Z,4.1
2023-03-06T04:04:06.232Z,3.7
2023-03-06T04:19:15.153Z,4.5
2023-03-06T04:34:24.337Z,4.7
2023-03-06T04:49:34.898Z,4.4
2023-03-06T05:04:44.684Z,5
2023-03-06T05:19:53.782Z,5.1
2023-03-06T05:35:03.040Z,3.7
2023-03-06T05:50:12.667Z,3.5
2023-03-06T06:05:21.967Z,3.4
2023-03-06T06:20:31.734Z,3
2023-03-06T06:35:40.754Z,2.9
2023-03-06T06:50:50.447Z,3.9
2023-03-06T07:05:59.599Z,2.3
2023-03-06T07:21:09.005Z,2.6
2023-03-06T07:36:18.700Z,2.3
2023-03-06T07:51:27.475Z,2.5
2023-03-06T08:06:36.964Z,2.5
2023-03-06T08:21:46.070Z,2.8
2023-03-06T08:36:55.921Z,2.2
2023-03-06T08:52:05.993Z,2.4
2023-03-06T09:07:15.974Z,3.1
2023-03-06T09:22:25.819Z,2.7
2023-03-06T09:37:35.327Z,1.9
2023-03-06T09:52:45.261Z,1.6
2023-03-06T10:07:55.291Z,1.4
2023-03-06T10:23:05.769Z,1.9
2023-03-06T10:38:15.654Z,1.7
2023-03-06T10:53:26.033Z,1.7
2023-03-06T11:08:36.363Z,1.9
2023-03-06T11:23:46.039Z,1.8
2023-03-06T11:38:56.642Z,1.7
2023-03-06T11:54:06.375Z,1.4
2023-03-06T12:09:16.767Z,1.3
2023-03-06T12:24:30.257Z,1.2
2023-03-06T12:39:40.392Z,1.3
2023-03-06T12:54:50.724Z,1.8
2023-03-06T13:10:00.138Z,1.5
2023-03-06T13:28:28.235Z,1.8
2023-03-06T13:43:40.081Z,1.7
2023-03-06T13:58:48.785Z,1.7
2023-03-06T14:13:58.889Z,1.8
2023-03-06T14:29:08.434Z,1.4
2023-03-06T14:44:19.415Z,1.5
2023-03-06T14:59:29.776Z,2.2
2023-03-06T15:14:38.567Z,2
2023-03-06T15:29:47.785Z,2.2
2023-03-06T15:44:57.648Z,2.5
2023-03-06T16:00:12.892Z,2.2
2023-03-06T16:15:38.253Z,2.6
2023-03-06T16:30:47.712Z,2.5
2023-03-06T16:45:58.171Z,2.6
2023-03-06T17:01:08.499Z,2.4
2023-03-06T17:16:18.593Z,6.9
2023-03-06T17:31:28.043Z,3
2023-03-06T17:46:38.268Z,3.6
2023-03-06T18:01:47.924Z,4.1
2023-03-06T18:16:57.903Z,3.4
2023-03-06T18:32:07.286Z,3.6
2023-03-06T18:47:17.465Z,3.7
2023-03-06T19:02:28.521Z,5.7
2023-03-06T19:17:38.407Z,20.2
2023-03-06T19:32:49.462Z,7
2023-03-06T19:47:59.776Z,8.3
2023-03-06T20:03:10.482Z,6.2
2023-03-06T20:18:20.652Z,7.7
2023-03-06T20:33:30.054Z,6.6
2023-03-06T20:48:39.755Z,6.4
2023-03-06T21:03:49.934Z,7.2
2023-03-06T21:18:59.355Z,7.2
2023-03-06T21:34:09.397Z,7.5
2023-03-06T21:49:18.923Z,9.8
2023-03-06T22:04:28.784Z,13.2
2023-03-06T22:19:39.203Z,18
2023-03-06T22:34:48.827Z,17.4
2023-03-06T22:49:58.278Z,20.9
2023-03-06T23:05:07.760Z,22.3
2023-03-06T23:20:17.826Z,21.1
2023-03-06T23:35:27.340Z,23.3
2023-03-06T23:50:37.415Z,19.4
